Terminal Aerodrome Forecast
Issued by NWS

Home | Current Version | Previous Version | Text Only | Print | Product List | Glossary On
Versions: 1 2 3 4 5 6 7 8 9 10 11 12 13 14 15 16 17 18
000
FTPA31 PHFO 290019 AAA
TAFHJR
TAF AMD
PHJR 290019Z 2900/2924 20008KT P6SM VCSH SCT025 BKN060
      TEMPO 2900/2903 5SM -SHRA BKN025
     FM290500 VRB03KT P6SM SCT025 BKN060
     FM291900 20009KT P6SM SCT025 SCT060=

USA.gov is the U.S. government's official web portal to all federal, state and local government web resources and services.